sensor_id;sensor_type;location;lat;lon;timestamp;pressure;altitude;pressure_sealevel;temperature;humidity
9189;BME280;34313;50.780;6.084;2023-02-12T00:00:35;101672.44;;;7.29;100.00
9189;BME280;34313;50.780;6.084;2023-02-12T00:03:00;101673.31;;;7.30;100.00
9189;BME280;34313;50.780;6.084;2023-02-12T00:05:25;101678.53;;;7.30;100.00
9189;BME280;34313;50.780;6.084;2023-02-12T00:07:52;101681.09;;;7.34;100.00
9189;BME280;34313;50.780;6.084;2023-02-12T00:10:17;101680.22;;;7.37;100.00
9189;BME280;34313;50.780;6.084;2023-02-12T00:12:43;101676.66;;;7.43;100.00
9189;BME280;34313;50.780;6.084;2023-02-12T00:15:08;101667.94;;;7.39;100.00
9189;BME280;34313;50.780;6.084;2023-02-12T00:17:34;101681.88;;;7.47;100.00
9189;BME280;34313;50.780;6.084;2023-02-12T00:19:59;101680.97;;;7.47;100.00
9189;BME280;34313;50.780;6.084;2023-02-12T00:22:24;101678.34;;;7.47;100.00
9189;BME280;34313;50.780;6.084;2023-02-12T00:24:50;101680.06;;;7.52;100.00
9189;BME280;34313;50.780;6.084;2023-02-12T00:27:15;101687.00;;;7.58;100.00
9189;BME280;34313;50.780;6.084;2023-02-12T00:29:40;101680.06;;;7.52;100.00
9189;BME280;34313;50.780;6.084;2023-02-12T00:32:06;101681.75;;;7.60;100.00
9189;BME280;34313;50.780;6.084;2023-02-12T00:34:31;101682.72;;;7.51;100.00
9189;BME280;34313;50.780;6.084;2023-02-12T00:36:57;101690.59;;;7.49;100.00
9189;BME280;34313;50.780;6.084;2023-02-12T00:39:22;101689.75;;;7.44;100.00
9189;BME280;34313;50.780;6.084;2023-02-12T00:41:47;101690.63;;;7.45;100.00
9189;BME280;34313;50.780;6.084;2023-02-12T00:44:13;101681.03;;;7.45;100.00
9189;BME280;34313;50.780;6.084;2023-02-12T00:46:38;101669.63;;;7.46;100.00
9189;BME280;34313;50.780;6.084;2023-02-12T00:49:06;101670.53;;;7.44;100.00
9189;BME280;34313;50.780;6.084;2023-02-12T00:51:32;101678.41;;;7.42;100.00
9189;BME280;34313;50.780;6.084;2023-02-12T00:53:57;101681.09;;;7.34;100.00
9189;BME280;34313;50.780;6.084;2023-02-12T00:56:22;101675.91;;;7.33;100.00
9189;BME280;34313;50.780;6.084;2023-02-12T00:58:49;101684.63;;;7.32;100.00
9189;BME280;34313;50.780;6.084;2023-02-12T01:01:15;101672.47;;;7.26;100.00
9189;BME280;34313;50.780;6.084;2023-02-12T01:03:41;101682.00;;;7.32;100.00
9189;BME280;34313;50.780;6.084;2023-02-12T01:06:06;101678.53;;;7.30;100.00
9189;BME280;34313;50.780;6.084;2023-02-12T01:08:32;101675.03;;;7.31;100.00
9189;BME280;34313;50.780;6.084;2023-02-12T01:10:59;101680.25;;;7.34;100.00
9189;BME280;34313;50.780;6.084;2023-02-12T01:13:26;101678.47;;;7.37;100.00
9189;BME280;34313;50.780;6.084;2023-02-12T01:18:26;101679.31;;;7.38;100.00
9189;BME280;34313;50.780;6.084;2023-02-12T01:20:52;101669.75;;;7.34;100.00
9189;BME280;34313;50.780;6.084;2023-02-12T01:23:17;101666.25;;;7.36;100.00
9189;BME280;34313;50.780;6.084;2023-02-12T01:25:42;101661.06;;;7.29;100.00
9189;BME280;34313;50.780;6.084;2023-02-12T01:28:09;101668.03;;;7.31;100.00
9189;BME280;34313;50.780;6.084;2023-02-12T01:30:35;101674.16;;;7.29;100.00
9189;BME280;34313;50.780;6.084;2023-02-12T01:33:00;101673.31;;;7.28;100.00
9189;BME280;34313;50.780;6.084;2023-02-12T01:35:26;101661.06;;;7.26;100.00
9189;BME280;34313;50.780;6.084;2023-02-12T01:37:51;101668.06;;;7.28;100.00
9189;BME280;34313;50.780;6.084;2023-02-12T01:40:17;101671.53;;;7.32;100.00
9189;BME280;34313;50.780;6.084;2023-02-12T01:42:42;101662.81;;;7.30;100.00
9189;BME280;34313;50.780;6.084;2023-02-12T01:47:40;101663.69;;;7.27;100.00
9189;BME280;34313;50.780;6.084;2023-02-12T01:50:07;101664.50;;;7.34;100.00
9189;BME280;34313;50.780;6.084;2023-02-12T01:52:37;101663.69;;;7.29;100.00
9189;BME280;34313;50.780;6.084;2023-02-12T01:55:06;101662.81;;;7.30;100.00
9189;BME280;34313;50.780;6.084;2023-02-12T01:57:34;101661.88;;;7.34;100.00
9189;BME280;34313;50.780;6.084;2023-02-12T02:00:05;101653.19;;;7.29;100.00
9189;BME280;34313;50.780;6.084;2023-02-12T02:02:32;101658.41;;;7.30;100.00
9189;BME280;34313;50.780;6.084;2023-02-12T02:05:01;101655.78;;;7.32;100.00
9189;BME280;34313;50.780;6.084;2023-02-12T02:07:27;101655.81;;;7.29;100.00
9189;BME280;34313;50.780;6.084;2023-02-12T02:09:53;101650.63;;;7.24;100.00
9189;BME280;34313;50.780;6.084;2023-02-12T02:12:18;101654.94;;;7.31;100.00
9189;BME280;34313;50.780;6.084;2023-02-12T02:15:03;101660.19;;;7.30;100.00
9189;BME280;34313;50.780;6.084;2023-02-12T02:17:41;101660.19;;;7.31;100.00
9189;BME280;34313;50.780;6.084;2023-02-12T02:20:20;101655.78;;;7.33;100.00
9189;BME280;34313;50.780;6.084;2023-02-12T02:28:58;101658.41;;;7.33;100.00
9189;BME280;34313;50.780;6.084;2023-02-12T02:31:56;101655.78;;;7.33;100.00
9189;BME280;34313;50.780;6.084;2023-02-12T02:34:37;101639.19;;;7.33;100.00
9189;BME280;34313;50.780;6.084;2023-02-12T02:37:32;101655.78;;;7.32;100.00
9189;BME280;34313;50.780;6.084;2023-02-12T02:40:15;101648.75;;;7.34;100.00
9189;BME280;34313;50.780;6.084;2023-02-12T02:43:05;101654.84;;;7.39;100.00
9189;BME280;34313;50.780;6.084;2023-02-12T02:45:45;101650.47;;;7.38;100.00
9189;BME280;34313;50.780;6.084;2023-02-12T02:48:13;101651.38;;;7.35;100.00
9189;BME280;34313;50.780;6.084;2023-02-12T02:50:45;101650.53;;;7.33;100.00
9189;BME280;34313;50.780;6.084;2023-02-12T02:53:17;101650.53;;;7.33;100.00
9189;BME280;34313;50.780;6.084;2023-02-12T02:55:48;101639.09;;;7.37;100.00
9189;BME280;34313;50.780;6.084;2023-02-12T02:58:25;101650.41;;;7.43;100.00
9189;BME280;34313;50.780;6.084;2023-02-12T03:01:03;101642.59;;;7.38;100.00
9189;BME280;34313;50.780;6.084;2023-02-12T03:06:06;101633.06;;;7.31;100.00
9189;BME280;34313;50.780;6.084;2023-02-12T03:08:38;101639.25;;;7.24;100.00
9189;BME280;34313;50.780;6.084;2023-02-12T03:11:16;101638.38;;;7.25;100.00
9189;BME280;34313;50.780;6.084;2023-02-12T03:13:49;101634.91;;;7.23;100.00
9189;BME280;34313;50.780;6.084;2023-02-12T03:16:21;101627.09;;;7.15;100.00
9189;BME280;34313;50.780;6.084;2023-02-12T03:19:14;101640.19;;;7.18;100.00
9189;BME280;34313;50.780;6.084;2023-02-12T03:21:44;101639.34;;;7.16;100.00
9189;BME280;34313;50.780;6.084;2023-02-12T03:24:15;101640.19;;;7.16;100.00
9189;BME280;34313;50.780;6.084;2023-02-12T03:26:47;101634.94;;;7.16;100.00
9189;BME280;34313;50.780;6.084;2023-02-12T03:29:14;101643.69;;;7.17;100.00
9189;BME280;34313;50.780;6.084;2023-02-12T03:37:10;101641.03;;;7.18;100.00
9189;BME280;34313;50.780;6.084;2023-02-12T03:40:10;101644.53;;;7.21;100.00
9189;BME280;34313;50.780;6.084;2023-02-12T03:48:16;101640.19;;;7.18;100.00
9189;BME280;34313;50.780;6.084;2023-02-12T03:50:50;101648.03;;;7.23;100.00
9189;BME280;34313;50.780;6.084;2023-02-12T03:53:17;101643.72;;;7.15;100.00
9189;BME280;34313;50.780;6.084;2023-02-12T03:55:46;101636.72;;;7.13;100.00
9189;BME280;34313;50.780;6.084;2023-02-12T03:58:19;101640.22;;;7.15;100.00
9189;BME280;34313;50.780;6.084;2023-02-12T04:00:45;101645.44;;;7.18;100.00
9189;BME280;34313;50.780;6.084;2023-02-12T04:03:10;101645.44;;;7.15;100.00
9189;BME280;34313;50.780;6.084;2023-02-12T04:05:36;101634.13;;;7.13;100.00
9189;BME280;34313;50.780;6.084;2023-02-12T04:08:03;101640.16;;;7.19;100.00
9189;BME280;34313;50.780;6.084;2023-02-12T04:10:41;101634.97;;;7.13;100.00
9189;BME280;34313;50.780;6.084;2023-02-12T04:13:18;101642.81;;;7.16;100.00
9189;BME280;34313;50.780;6.084;2023-02-12T04:18:26;101652.38;;;7.22;100.00
9189;BME280;34313;50.780;6.084;2023-02-12T04:21:12;101650.66;;;7.23;100.00
9189;BME280;34313;50.780;6.084;2023-02-12T04:23:47;101652.41;;;7.21;100.00
9189;BME280;34313;50.780;6.084;2023-02-12T04:26:23;101654.16;;;7.18;100.00
9189;BME280;34313;50.780;6.084;2023-02-12T04:34:26;101659.47;;;7.14;100.00
9189;BME280;34313;50.780;6.084;2023-02-12T04:37:03;101649.81;;;7.16;100.00
9189;BME280;34313;50.780;6.084;2023-02-12T04:39:33;101662.03;;;7.17;100.00
9189;BME280;34313;50.780;6.084;2023-02-12T04:42:01;101648.13;;;7.10;100.00
9189;BME280;34313;50.780;6.084;2023-02-12T04:44:33;101666.41;;;7.18;100.00
9189;BME280;34313;50.780;6.084;2023-02-12T04:46:59;101666.41;;;7.18;100.00
9189;BME280;34313;50.780;6.084;2023-02-12T04:49:25;101664.69;;;7.15;100.00
9189;BME280;34313;50.780;6.084;2023-02-12T04:51:50;101655.06;;;7.19;100.00
9189;BME280;34313;50.780;6.084;2023-02-12T04:54:17;101655.94;;;7.16;100.00
9189;BME280;34313;50.780;6.084;2023-02-12T04:56:43;101659.38;;;7.22;100.00
9189;BME280;34313;50.780;6.084;2023-02-12T04:59:09;101661.16;;;7.19;100.00
9189;BME280;34313;50.780;6.084;2023-02-12T05:01:36;101660.28;;;7.19;100.00
9189;BME280;34313;50.780;6.084;2023-02-12T05:04:02;101652.44;;;7.17;100.00
9189;BME280;34313;50.780;6.084;2023-02-12T05:06:29;101655.09;;;7.11;100.00
9189;BME280;34313;50.780;6.084;2023-02-12T05:08:55;101656.78;;;7.17;100.00
9189;BME280;34313;50.780;6.084;2023-02-12T05:11:20;101658.53;;;7.19;100.00
9189;BME280;34313;50.780;6.084;2023-02-12T05:13:50;101662.00;;;7.20;100.00
9189;BME280;34313;50.780;6.084;2023-02-12T05:16:16;101664.69;;;7.15;100.00
9189;BME280;34313;50.780;6.084;2023-02-12T05:18:42;101658.53;;;7.18;100.00
9189;BME280;34313;50.780;6.084;2023-02-12T05:21:07;101656.84;;;7.15;100.00
9189;BME280;34313;50.780;6.084;2023-02-12T05:23:35;101663.78;;;7.18;100.00
9189;BME280;34313;50.780;6.084;2023-02-12T05:26:04;101658.56;;;7.15;100.00
9189;BME280;34313;50.780;6.084;2023-02-12T05:28:30;101662.03;;;7.17;100.00
9189;BME280;34313;50.780;6.084;2023-02-12T05:31:00;101667.25;;;7.20;100.00
9189;BME280;34313;50.780;6.084;2023-02-12T05:33:25;101664.63;;;7.23;100.00
9189;BME280;34313;50.780;6.084;2023-02-12T05:35:51;101664.59;;;7.25;100.00
9189;BME280;34313;50.780;6.084;2023-02-12T05:38:17;101662.00;;;7.23;100.00
9189;BME280;34313;50.780;6.084;2023-02-12T05:40:42;101667.28;;;7.18;100.00
9189;BME280;34313;50.780;6.084;2023-02-12T05:43:08;101668.09;;;7.24;100.00
9189;BME280;34313;50.780;6.084;2023-02-12T05:45:33;101677.72;;;7.23;100.00
9189;BME280;34313;50.780;6.084;2023-02-12T05:47:58;101673.41;;;7.21;100.00
9189;BME280;34313;50.780;6.084;2023-02-12T05:50:24;101670.72;;;7.22;100.00
9189;BME280;34313;50.780;6.084;2023-02-12T05:52:49;101674.25;;;7.21;100.00
9189;BME280;34313;50.780;6.084;2023-02-12T05:55:15;101667.31;;;7.15;100.00
9189;BME280;34313;50.780;6.084;2023-02-12T05:57:40;101677.75;;;7.22;100.00
9189;BME280;34313;50.780;6.084;2023-02-12T06:00:06;101671.56;;;7.26;100.00
9189;BME280;34313;50.780;6.084;2023-02-12T06:02:35;101672.47;;;7.26;100.00
9189;BME280;34313;50.780;6.084;2023-02-12T06:05:01;101680.31;;;7.28;100.00
9189;BME280;34313;50.780;6.084;2023-02-12T06:07:26;101677.72;;;7.23;100.00
9189;BME280;34313;50.780;6.084;2023-02-12T06:09:52;101675.09;;;7.23;100.00
9189;BME280;34313;50.780;6.084;2023-02-12T06:12:19;101673.34;;;7.24;100.00
9189;BME280;34313;50.780;6.084;2023-02-12T06:14:44;101679.47;;;7.24;100.00
9189;BME280;34313;50.780;6.084;2023-02-12T06:17:10;101671.63;;;7.24;100.00
9189;BME280;34313;50.780;6.084;2023-02-12T06:19:35;101674.19;;;7.26;100.00
9189;BME280;34313;50.780;6.084;2023-02-12T06:22:00;101685.56;;;7.29;100.00
9189;BME280;34313;50.780;6.084;2023-02-12T06:24:26;101686.41;;;7.30;100.00
9189;BME280;34313;50.780;6.084;2023-02-12T06:26:51;101691.66;;;7.31;100.00
9189;BME280;34313;50.780;6.084;2023-02-12T06:29:18;101682.84;;;7.35;100.00
9189;BME280;34313;50.780;6.084;2023-02-12T06:31:43;101682.88;;;7.31;100.00
9189;BME280;34313;50.780;6.084;2023-02-12T06:34:10;101682.81;;;7.40;100.00
9189;BME280;34313;50.780;6.084;2023-02-12T06:36:37;101689.78;;;7.43;100.00
9189;BME280;34313;50.780;6.084;2023-02-12T06:39:04;101681.09;;;7.37;100.00
9189;BME280;34313;50.780;6.084;2023-02-12T06:41:29;101681.94;;;7.38;100.00
9189;BME280;34313;50.780;6.084;2023-02-12T06:43:55;101686.34;;;7.34;100.00
9189;BME280;34313;50.780;6.084;2023-02-12T06:46:20;101686.34;;;7.34;100.00
9189;BME280;34313;50.780;6.084;2023-02-12T06:48:46;101694.22;;;7.36;100.00
9189;BME280;34313;50.780;6.084;2023-02-12T06:51:14;101688.97;;;7.36;100.00
9189;BME280;34313;50.780;6.084;2023-02-12T06:53:39;101695.13;;;7.33;100.00
9189;BME280;34313;50.780;6.084;2023-02-12T06:56:08;101700.34;;;7.35;100.00
9189;BME280;34313;50.780;6.084;2023-02-12T06:58:42;101694.25;;;7.33;100.00
9189;BME280;34313;50.780;6.084;2023-02-12T07:03:43;101695.97;;;7.34;100.00
9189;BME280;34313;50.780;6.084;2023-02-12T07:06:09;101690.75;;;7.34;100.00
9189;BME280;34313;50.780;6.084;2023-02-12T07:08:35;101709.06;;;7.38;100.00
9189;BME280;34313;50.780;6.084;2023-02-12T07:11:01;101704.69;;;7.39;100.00
9189;BME280;34313;50.780;6.084;2023-02-12T07:13:26;101704.66;;;7.42;100.00
9189;BME280;34313;50.780;6.084;2023-02-12T07:15:51;101706.41;;;7.42;100.00
9189;BME280;34313;50.780;6.084;2023-02-12T07:18:17;101699.44;;;7.39;100.00
9189;BME280;34313;50.780;6.084;2023-02-12T07:20:42;101712.44;;;7.48;100.00
9189;BME280;34313;50.780;6.084;2023-02-12T07:23:11;101714.19;;;7.52;100.00
9189;BME280;34313;50.780;6.084;2023-02-12T07:25:37;101721.09;;;7.60;100.00
9189;BME280;34313;50.780;6.084;2023-02-12T07:28:02;101715.88;;;7.55;100.00
9189;BME280;34313;50.780;6.084;2023-02-12T07:30:28;101723.72;;;7.60;100.00
9189;BME280;34313;50.780;6.084;2023-02-12T07:32:53;101721.06;;;7.63;100.00
9189;BME280;34313;50.780;6.084;2023-02-12T07:35:19;101722.81;;;7.61;100.00
9189;BME280;34313;50.780;6.084;2023-02-12T07:37:44;101736.78;;;7.66;100.00
9189;BME280;34313;50.780;6.084;2023-02-12T07:40:10;101724.63;;;7.55;100.00
9189;BME280;34313;50.780;6.084;2023-02-12T07:42:35;101735.16;;;7.54;100.00
9189;BME280;34313;50.780;6.084;2023-02-12T07:45:01;101738.53;;;7.64;100.00
9189;BME280;34313;50.780;6.084;2023-02-12T07:47:26;101744.66;;;7.64;100.00
9189;BME280;34313;50.780;6.084;2023-02-12T07:49:51;101731.53;;;7.64;100.00
9189;BME280;34313;50.780;6.084;2023-02-12T07:52:17;101738.47;;;7.71;100.00
9189;BME280;34313;50.780;6.084;2023-02-12T07:54:42;101737.66;;;7.66;100.00
9189;BME280;34313;50.780;6.084;2023-02-12T07:57:07;101739.34;;;7.70;100.00
9189;BME280;34313;50.780;6.084;2023-02-12T07:59:33;101742.88;;;7.68;100.00
9189;BME280;34313;50.780;6.084;2023-02-12T08:02:01;101741.09;;;7.71;100.00
9189;BME280;34313;50.780;6.084;2023-02-12T08:04:26;101747.28;;;7.64;100.00
9189;BME280;34313;50.780;6.084;2023-02-12T08:06:53;101746.31;;;7.73;100.00
9189;BME280;34313;50.780;6.084;2023-02-12T08:09:22;101745.34;;;7.82;100.00
9189;BME280;34313;50.780;6.084;2023-02-12T08:11:48;101733.09;;;7.84;100.00
9189;BME280;34313;50.780;6.084;2023-02-12T08:14:19;101745.25;;;7.92;100.00
9189;BME280;34313;50.780;6.084;2023-02-12T08:16:46;101732.97;;;7.94;100.00
9189;BME280;34313;50.780;6.084;2023-02-12T08:19:13;101728.53;;;8.01;100.00
9189;BME280;34313;50.780;6.084;2023-02-12T08:21:38;101737.16;;;8.08;100.00
9189;BME280;34313;50.780;6.084;2023-02-12T08:24:04;101728.41;;;8.10;100.00
9189;BME280;34313;50.780;6.084;2023-02-12T08:26:31;101743.19;;;8.19;100.00
9189;BME280;34313;50.780;6.084;2023-02-12T08:29:03;101741.41;;;8.21;100.00
9189;BME280;34313;50.780;6.084;2023-02-12T08:31:34;101742.22;;;8.26;100.00
9189;BME280;34313;50.780;6.084;2023-02-12T08:34:01;101738.66;;;8.30;100.00
9189;BME280;34313;50.780;6.084;2023-02-12T08:36:29;101712.50;;;8.23;100.00
9189;BME280;34313;50.780;6.084;2023-02-12T08:38:58;101720.34;;;8.24;99.96
9189;BME280;34313;50.780;6.084;2023-02-12T08:41:28;101747.13;;;8.54;100.00
9189;BME280;34313;50.780;6.084;2023-02-12T08:43:57;101696.44;;;8.41;99.25
9189;BME280;34313;50.780;6.084;2023-02-12T08:46:39;101704.91;;;8.65;97.19
9189;BME280;34313;50.780;6.084;2023-02-12T08:49:11;101710.94;;;8.73;97.21
9189;BME280;34313;50.780;6.084;2023-02-12T08:51:40;101742.13;;;8.98;97.09
9189;BME280;34313;50.780;6.084;2023-02-12T08:54:09;101741.09;;;9.06;96.75
9189;BME280;34313;50.780;6.084;2023-02-12T08:56:35;101737.72;;;8.98;95.48
9189;BME280;34313;50.780;6.084;2023-02-12T08:59:02;101752.34;;;9.15;95.89
9189;BME280;34313;50.780;6.084;2023-02-12T09:01:30;101743.53;;;9.19;95.87
9189;BME280;34313;50.780;6.084;2023-02-12T09:03:55;101747.66;;;9.34;94.87
9189;BME280;34313;50.780;6.084;2023-02-12T09:06:23;101740.50;;;9.42;94.93
9189;BME280;34313;50.780;6.084;2023-02-12T09:08:49;101735.06;;;9.51;94.06
9189;BME280;34313;50.780;6.084;2023-02-12T09:11:18;101745.41;;;9.62;93.01
9189;BME280;34313;50.780;6.084;2023-02-12T09:13:46;101744.41;;;9.68;92.71
9189;BME280;34313;50.780;6.084;2023-02-12T09:16:13;101741.78;;;9.68;92.62
9189;BME280;34313;50.780;6.084;2023-02-12T09:18:39;101747.78;;;9.74;91.63
9189;BME280;34313;50.780;6.084;2023-02-12T09:21:07;101754.75;;;9.78;88.98
9189;BME280;34313;50.780;6.084;2023-02-12T09:23:34;101747.66;;;9.82;88.25
9189;BME280;34313;50.780;6.084;2023-02-12T09:26:04;101747.66;;;9.83;87.29
9189;BME280;34313;50.780;6.084;2023-02-12T09:28:29;101744.06;;;9.86;87.83
9189;BME280;34313;50.780;6.084;2023-02-12T09:30:55;101746.63;;;9.91;87.62
9189;BME280;34313;50.780;6.084;2023-02-12T09:33:20;101748.38;;;9.90;88.08
9189;BME280;34313;50.780;6.084;2023-02-12T09:35:47;101742.22;;;9.91;88.81
9189;BME280;34313;50.780;6.084;2023-02-12T09:38:12;101746.41;;;10.01;88.42
9189;BME280;34313;50.780;6.084;2023-02-12T09:47:43;101751.66;;;10.03;89.10
9189;BME280;34313;50.780;6.084;2023-02-12T09:52:18;101749.97;;;9.97;89.65
9189;BME280;34313;50.780;6.084;2023-02-12T09:54:45;101746.63;;;9.91;89.77
9189;BME280;34313;50.780;6.084;2023-02-12T09:57:27;101754.16;;;10.09;89.79
9189;BME280;34313;50.780;6.084;2023-02-12T09:59:58;101753.09;;;10.18;88.03
9189;BME280;34313;50.780;6.084;2023-02-12T10:02:25;101754.72;;;10.23;86.33
9189;BME280;34313;50.780;6.084;2023-02-12T10:04:52;101755.84;;;10.13;87.10
9189;BME280;34313;50.780;6.084;2023-02-12T10:12:39;101752.31;;;9.68;89.10
9189;BME280;34313;50.780;6.084;2023-02-12T10:23:31;101760.13;;;10.17;88.80
9189;BME280;34313;50.780;6.084;2023-02-12T10:26:03;101762.50;;;10.33;87.80
9189;BME280;34313;50.780;6.084;2023-02-12T10:28:37;101762.56;;;10.27;86.43
9189;BME280;34313;50.780;6.084;2023-02-12T10:31:20;101752.00;;;10.28;85.88
9189;BME280;34313;50.780;6.084;2023-02-12T10:33:49;101758.50;;;10.12;85.80
9189;BME280;34313;50.780;6.084;2023-02-12T10:36:50;101762.00;;;10.12;86.54
9189;BME280;34313;50.780;6.084;2023-02-12T10:39:26;101758.09;;;10.32;85.46
9189;BME280;34313;50.780;6.084;2023-02-12T10:44:33;101759.94;;;10.69;83.76
9189;BME280;34313;50.780;6.084;2023-02-12T10:46:58;101773.19;;;10.66;82.38
9189;BME280;34313;50.780;6.084;2023-02-12T10:49:24;101767.38;;;10.50;82.93
9189;BME280;34313;50.780;6.084;2023-02-12T10:52:38;101773.94;;;10.72;82.46
9189;BME280;34313;50.780;6.084;2023-02-12T10:54:43;101775.75;;;10.69;82.53
9189;BME280;34313;50.780;6.084;2023-02-12T10:59:47;101766.03;;;10.29;82.44
9189;BME280;34313;50.780;6.084;2023-02-12T11:02:30;101769.16;;;10.49;81.38
9189;BME280;34313;50.780;6.084;2023-02-12T11:04:57;101758.97;;;10.32;81.96
9189;BME280;34313;50.780;6.084;2023-02-12T11:07:24;101764.34;;;10.26;82.01
9189;BME280;34313;50.780;6.084;2023-02-12T11:09:52;101752.78;;;10.35;82.08
9189;BME280;34313;50.780;6.084;2023-02-12T11:12:35;101744.38;;;10.14;82.85
9189;BME280;34313;50.780;6.084;2023-02-12T11:15:20;101752.66;;;10.39;82.59
9189;BME280;34313;50.780;6.084;2023-02-12T11:17:59;101738.78;;;10.72;81.93
9189;BME280;34313;50.780;6.084;2023-02-12T11:23:02;101735.63;;;10.93;80.48
9189;BME280;34313;50.780;6.084;2023-02-12T11:25:36;101731.09;;;10.98;80.27
9189;BME280;34313;50.780;6.084;2023-02-12T11:28:19;101734.81;;;10.54;81.98
9189;BME280;34313;50.780;6.084;2023-02-12T11:31:02;101732.22;;;10.51;81.36
9189;BME280;34313;50.780;6.084;2023-02-12T11:33:29;101721.69;;;10.51;81.27
9189;BME280;34313;50.780;6.084;2023-02-12T11:38:35;101716.97;;;10.64;80.51
9189;BME280;34313;50.780;6.084;2023-02-12T11:41:05;101715.69;;;10.43;81.91
9189;BME280;34313;50.780;6.084;2023-02-12T11:43:33;101710.00;;;10.20;83.18
9189;BME280;34313;50.780;6.084;2023-02-12T11:46:02;101710.44;;;10.43;82.77
9189;BME280;34313;50.780;6.084;2023-02-12T11:48:29;101705.91;;;10.48;82.95
9189;BME280;34313;50.780;6.084;2023-02-12T11:50:58;101694.06;;;10.25;83.36
9189;BME280;34313;50.780;6.084;2023-02-12T11:53:31;101700.31;;;10.22;83.72
9189;BME280;34313;50.780;6.084;2023-02-12T11:56:00;101697.63;;;10.65;83.43
9189;BME280;34313;50.780;6.084;2023-02-12T11:58:27;101704.91;;;10.53;82.55
9189;BME280;34313;50.780;6.084;2023-02-12T12:01:18;101700.38;;;10.60;82.13
9189;BME280;34313;50.780;6.084;2023-02-12T12:03:59;101707.16;;;10.30;83.02
9189;BME280;34313;50.780;6.084;2023-02-12T12:06:36;101694.66;;;10.39;82.46
9189;BME280;34313;50.780;6.084;2023-02-12T12:11:40;101687.78;;;10.34;83.89
9189;BME280;34313;50.780;6.084;2023-02-12T12:17:45;101671.56;;;10.12;84.96
9189;BME280;34313;50.780;6.084;2023-02-12T12:20:38;101678.38;;;10.20;84.87
9189;BME280;34313;50.780;6.084;2023-02-12T12:23:12;101683.19;;;10.01;85.45
9189;BME280;34313;50.780;6.084;2023-02-12T12:25:44;101667.63;;;10.30;84.39
9189;BME280;34313;50.780;6.084;2023-02-12T12:31:07;101668.63;;;10.26;84.56
9189;BME280;34313;50.780;6.084;2023-02-12T12:33:48;101662.56;;;10.20;84.87
9189;BME280;34313;50.780;6.084;2023-02-12T12:38:55;101655.88;;;10.45;84.28
9189;BME280;34313;50.780;6.084;2023-02-12T13:06:28;101639.94;;;10.87;81.75
9189;BME280;34313;50.780;6.084;2023-02-12T13:09:21;101631.16;;;10.52;83.01
9189;BME280;34313;50.780;6.084;2023-02-12T13:12:06;101632.03;;;10.51;83.57
9189;BME280;34313;50.780;6.084;2023-02-12T13:17:29;101627.13;;;10.35;85.18
9189;BME280;34313;50.780;6.084;2023-02-12T13:20:07;101634.38;;;10.24;85.29
9189;BME280;34313;50.780;6.084;2023-02-12T13:22:44;101618.28;;;10.38;85.48
9189;BME280;34313;50.780;6.084;2023-02-12T13:27:48;101633.22;;;9.97;88.76
9189;BME280;34313;50.780;6.084;2023-02-12T13:30:29;101619.38;;;9.87;89.28
9189;BME280;34313;50.780;6.084;2023-02-12T13:33:08;101612.00;;;10.05;89.60
9189;BME280;34313;50.780;6.084;2023-02-12T13:35:40;101614.09;;;10.28;88.78
9189;BME280;34313;50.780;6.084;2023-02-12T13:38:07;101600.88;;;10.29;88.28
9189;BME280;34313;50.780;6.084;2023-02-12T13:40:33;101609.81;;;9.81;90.65
9189;BME280;34313;50.780;6.084;2023-02-12T13:56:42;101596.88;;;9.72;93.19
9189;BME280;34313;50.780;6.084;2023-02-12T14:07:17;101576.44;;;9.83;92.43
9189;BME280;34313;50.780;6.084;2023-02-12T14:09:46;101583.53;;;9.80;92.55
9189;BME280;34313;50.780;6.084;2023-02-12T14:14:52;101588.84;;;9.78;91.55
9189;BME280;34313;50.780;6.084;2023-02-12T14:24:54;101580.09;;;10.17;88.09
9189;BME280;34313;50.780;6.084;2023-02-12T14:27:43;101594.50;;;10.00;88.90
9189;BME280;34313;50.780;6.084;2023-02-12T14:37:50;101598.59;;;9.75;91.04
9189;BME280;34313;50.780;6.084;2023-02-12T14:51:40;101595.97;;;9.30;94.50
9189;BME280;34313;50.780;6.084;2023-02-12T14:54:15;101589.97;;;9.23;95.61
9189;BME280;34313;50.780;6.084;2023-02-12T14:56:48;101598.56;;;9.33;95.28
9189;BME280;34313;50.780;6.084;2023-02-12T14:59:23;101602.97;;;9.31;95.57
9189;BME280;34313;50.780;6.084;2023-02-12T15:01:50;101589.31;;;9.12;96.69
9189;BME280;34313;50.780;6.084;2023-02-12T15:04:27;101597.06;;;9.18;96.58
9189;BME280;34313;50.780;6.084;2023-02-12T15:07:06;101599.06;;;9.06;97.64
9189;BME280;34313;50.780;6.084;2023-02-12T15:14:49;101588.91;;;8.85;99.69
9189;BME280;34313;50.780;6.084;2023-02-12T15:17:26;101593.09;;;8.95;99.55
9189;BME280;34313;50.780;6.084;2023-02-12T15:20:18;101599.19;;;8.99;99.86
9189;BME280;34313;50.780;6.084;2023-02-12T15:22:45;101600.81;;;9.04;99.85
9189;BME280;34313;50.780;6.084;2023-02-12T15:25:22;101599.94;;;9.05;100.00
9189;BME280;34313;50.780;6.084;2023-02-12T15:27:58;101598.94;;;9.11;99.73
9189;BME280;34313;50.780;6.084;2023-02-12T15:30:27;101592.75;;;9.15;99.85
9189;BME280;34313;50.780;6.084;2023-02-12T15:32:59;101598.38;;;8.95;100.00
9189;BME280;34313;50.780;6.084;2023-02-12T15:35:28;101595.78;;;8.92;100.00
9189;BME280;34313;50.780;6.084;2023-02-12T15:37:55;101599.41;;;8.85;100.00
9189;BME280;34313;50.780;6.084;2023-02-12T15:40:21;101594.34;;;8.74;100.00
9189;BME280;34313;50.780;6.084;2023-02-12T15:42:52;101578.81;;;8.60;100.00
9189;BME280;34313;50.780;6.084;2023-02-12T15:45:21;101591.94;;;8.60;100.00
9189;BME280;34313;50.780;6.084;2023-02-12T15:48:11;101583.22;;;8.58;100.00
9189;BME280;34313;50.780;6.084;2023-02-12T15:50:53;101588.22;;;8.74;100.00
9189;BME280;34313;50.780;6.084;2023-02-12T15:53:21;101583.97;;;8.68;100.00
9189;BME280;34313;50.780;6.084;2023-02-12T15:55:48;101567.50;;;8.55;100.00
9189;BME280;34313;50.780;6.084;2023-02-12T15:58:21;101578.69;;;8.68;100.00
9189;BME280;34313;50.780;6.084;2023-02-12T16:00:47;101578.66;;;8.69;100.00
9189;BME280;34313;50.780;6.084;2023-02-12T16:03:27;101573.38;;;8.69;100.00